sensor_id;sensor_type;location;lat;lon;timestamp;temperature;humidity
21616;DHT22;10970;48.714;9.584;2022-08-06T00:14:09;19.60;99.90
21616;DHT22;10970;48.714;9.584;2022-08-06T00:19:01;19.60;99.90
21616;DHT22;10970;48.714;9.584;2022-08-06T00:21:27;19.40;99.90
21616;DHT22;10970;48.714;9.584;2022-08-06T00:33:38;19.40;99.90
21616;DHT22;10970;48.714;9.584;2022-08-06T00:50:42;19.20;99.90
21616;DHT22;10970;48.714;9.584;2022-08-06T00:55:34;19.30;99.90
21616;DHT22;10970;48.714;9.584;2022-08-06T00:57:59;19.30;99.90
21616;DHT22;10970;48.714;9.584;2022-08-06T01:00:25;19.20;99.90
21616;DHT22;10970;48.714;9.584;2022-08-06T01:07:43;19.20;99.90
21616;DHT22;10970;48.714;9.584;2022-08-06T01:10:09;19.20;99.90
21616;DHT22;10970;48.714;9.584;2022-08-06T01:12:34;19.20;99.90
21616;DHT22;10970;48.714;9.584;2022-08-06T01:15:00;19.20;99.90
21616;DHT22;10970;48.714;9.584;2022-08-06T01:17:31;19.20;99.90
21616;DHT22;10970;48.714;9.584;2022-08-06T01:28:04;19.20;99.90
21616;DHT22;10970;48.714;9.584;2022-08-06T01:40:32;19.10;99.90
21616;DHT22;10970;48.714;9.584;2022-08-06T01:42:59;19.10;99.90
21616;DHT22;10970;48.714;9.584;2022-08-06T01:45:28;19.10;99.90
21616;DHT22;10970;48.714;9.584;2022-08-06T01:48:00;19.10;99.90
21616;DHT22;10970;48.714;9.584;2022-08-06T01:50:33;19.00;99.90
21616;DHT22;10970;48.714;9.584;2022-08-06T01:53:03;19.10;99.90
21616;DHT22;10970;48.714;9.584;2022-08-06T01:55:33;19.00;99.90
21616;DHT22;10970;48.714;9.584;2022-08-06T01:58:03;19.00;99.90
21616;DHT22;10970;48.714;9.584;2022-08-06T02:00:31;19.00;99.90
21616;DHT22;10970;48.714;9.584;2022-08-06T02:03:05;19.00;99.90
21616;DHT22;10970;48.714;9.584;2022-08-06T02:05:33;18.90;99.90
21616;DHT22;10970;48.714;9.584;2022-08-06T02:08:01;18.90;99.90
21616;DHT22;10970;48.714;9.584;2022-08-06T02:10:30;18.70;99.90
21616;DHT22;10970;48.714;9.584;2022-08-06T02:12:59;18.80;99.90
21616;DHT22;10970;48.714;9.584;2022-08-06T02:15:27;18.80;99.90
21616;DHT22;10970;48.714;9.584;2022-08-06T02:17:57;18.80;99.90
21616;DHT22;10970;48.714;9.584;2022-08-06T02:20:33;18.80;99.90
21616;DHT22;10970;48.714;9.584;2022-08-06T02:23:01;18.80;99.90
21616;DHT22;10970;48.714;9.584;2022-08-06T02:25:29;18.80;99.90
21616;DHT22;10970;48.714;9.584;2022-08-06T02:30:24;18.70;99.90
21616;DHT22;10970;48.714;9.584;2022-08-06T02:37:51;18.70;99.90
21616;DHT22;10970;48.714;9.584;2022-08-06T02:40:23;18.70;99.90
21616;DHT22;10970;48.714;9.584;2022-08-06T02:43:10;18.60;99.90
21616;DHT22;10970;48.714;9.584;2022-08-06T02:50:49;18.60;99.90
21616;DHT22;10970;48.714;9.584;2022-08-06T02:53:19;18.50;99.90
21616;DHT22;10970;48.714;9.584;2022-08-06T02:55:48;18.40;99.90
21616;DHT22;10970;48.714;9.584;2022-08-06T02:58:22;18.50;99.90
21616;DHT22;10970;48.714;9.584;2022-08-06T03:00:50;18.40;99.90
21616;DHT22;10970;48.714;9.584;2022-08-06T03:03:20;18.50;99.90
21616;DHT22;10970;48.714;9.584;2022-08-06T03:05:47;18.40;99.90
21616;DHT22;10970;48.714;9.584;2022-08-06T03:08:17;18.40;99.90
21616;DHT22;10970;48.714;9.584;2022-08-06T03:10:44;18.30;99.90
21616;DHT22;10970;48.714;9.584;2022-08-06T03:13:11;18.40;99.90
21616;DHT22;10970;48.714;9.584;2022-08-06T03:15:37;18.30;99.90
21616;DHT22;10970;48.714;9.584;2022-08-06T03:18:05;18.30;99.90
21616;DHT22;10970;48.714;9.584;2022-08-06T03:20:33;18.30;99.90
21616;DHT22;10970;48.714;9.584;2022-08-06T03:23:02;18.30;99.90
21616;DHT22;10970;48.714;9.584;2022-08-06T03:25:29;18.20;99.90
21616;DHT22;10970;48.714;9.584;2022-08-06T03:27:58;18.30;99.90
21616;DHT22;10970;48.714;9.584;2022-08-06T03:30:25;18.20;99.90
21616;DHT22;10970;48.714;9.584;2022-08-06T03:32:52;18.20;99.90
21616;DHT22;10970;48.714;9.584;2022-08-06T03:35:19;18.20;99.90
21616;DHT22;10970;48.714;9.584;2022-08-06T03:37:47;18.20;99.90
21616;DHT22;10970;48.714;9.584;2022-08-06T03:40:14;18.20;99.90
21616;DHT22;10970;48.714;9.584;2022-08-06T03:42:40;18.10;99.90
21616;DHT22;10970;48.714;9.584;2022-08-06T03:45:07;18.10;99.90
21616;DHT22;10970;48.714;9.584;2022-08-06T03:47:37;18.20;99.90
21616;DHT22;10970;48.714;9.584;2022-08-06T03:50:09;18.30;99.90
21616;DHT22;10970;48.714;9.584;2022-08-06T03:52:43;18.30;99.90
21616;DHT22;10970;48.714;9.584;2022-08-06T03:55:15;18.20;99.90
21616;DHT22;10970;48.714;9.584;2022-08-06T03:57:45;18.10;99.90
21616;DHT22;10970;48.714;9.584;2022-08-06T04:00:14;18.10;99.90
21616;DHT22;10970;48.714;9.584;2022-08-06T04:02:44;18.10;99.90
21616;DHT22;10970;48.714;9.584;2022-08-06T04:05:21;18.10;99.90
21616;DHT22;10970;48.714;9.584;2022-08-06T04:07:52;18.10;99.90
21616;DHT22;10970;48.714;9.584;2022-08-06T04:10:19;18.00;99.90
21616;DHT22;10970;48.714;9.584;2022-08-06T04:15:12;17.90;99.90
21616;DHT22;10970;48.714;9.584;2022-08-06T04:17:41;17.90;99.90
21616;DHT22;10970;48.714;9.584;2022-08-06T04:20:11;17.90;99.90
21616;DHT22;10970;48.714;9.584;2022-08-06T04:22:39;17.90;99.90
21616;DHT22;10970;48.714;9.584;2022-08-06T04:25:05;17.90;99.90
21616;DHT22;10970;48.714;9.584;2022-08-06T04:27:31;17.90;99.90
21616;DHT22;10970;48.714;9.584;2022-08-06T04:29:58;17.80;99.90
21616;DHT22;10970;48.714;9.584;2022-08-06T04:32:25;17.80;99.90
21616;DHT22;10970;48.714;9.584;2022-08-06T04:34:52;17.90;99.90
21616;DHT22;10970;48.714;9.584;2022-08-06T04:37:18;17.80;99.90
21616;DHT22;10970;48.714;9.584;2022-08-06T04:39:45;17.80;99.90
21616;DHT22;10970;48.714;9.584;2022-08-06T04:42:11;17.90;99.90
21616;DHT22;10970;48.714;9.584;2022-08-06T04:44:37;17.90;99.90
21616;DHT22;10970;48.714;9.584;2022-08-06T04:47:04;17.80;99.90
21616;DHT22;10970;48.714;9.584;2022-08-06T04:49:30;17.80;99.90
21616;DHT22;10970;48.714;9.584;2022-08-06T04:51:56;17.90;99.90
21616;DHT22;10970;48.714;9.584;2022-08-06T04:54:21;17.90;99.90
21616;DHT22;10970;48.714;9.584;2022-08-06T04:56:47;18.00;99.90
21616;DHT22;10970;48.714;9.584;2022-08-06T04:59:13;18.00;99.90
21616;DHT22;10970;48.714;9.584;2022-08-06T05:01:39;18.10;99.90
21616;DHT22;10970;48.714;9.584;2022-08-06T05:04:05;18.00;99.90
21616;DHT22;10970;48.714;9.584;2022-08-06T05:06:52;18.10;99.90
21616;DHT22;10970;48.714;9.584;2022-08-06T05:09:22;18.10;99.90
21616;DHT22;10970;48.714;9.584;2022-08-06T05:12:00;18.00;99.90
21616;DHT22;10970;48.714;9.584;2022-08-06T05:14:45;17.90;99.90
21616;DHT22;10970;48.714;9.584;2022-08-06T05:17:17;17.90;99.90
21616;DHT22;10970;48.714;9.584;2022-08-06T05:19:52;17.90;99.90
21616;DHT22;10970;48.714;9.584;2022-08-06T05:22:19;17.80;99.90
21616;DHT22;10970;48.714;9.584;2022-08-06T05:24:45;17.80;99.90
21616;DHT22;10970;48.714;9.584;2022-08-06T05:27:13;17.70;99.90
21616;DHT22;10970;48.714;9.584;2022-08-06T05:29:40;17.70;99.90
21616;DHT22;10970;48.714;9.584;2022-08-06T05:32:06;17.80;99.90
21616;DHT22;10970;48.714;9.584;2022-08-06T05:34:32;17.90;99.90
21616;DHT22;10970;48.714;9.584;2022-08-06T05:36:57;17.90;99.90
21616;DHT22;10970;48.714;9.584;2022-08-06T05:39:23;18.00;99.90
21616;DHT22;10970;48.714;9.584;2022-08-06T05:41:49;18.10;99.90
21616;DHT22;10970;48.714;9.584;2022-08-06T05:44:15;18.10;99.90
21616;DHT22;10970;48.714;9.584;2022-08-06T05:46:48;18.20;99.90
21616;DHT22;10970;48.714;9.584;2022-08-06T05:49:46;18.20;99.90
21616;DHT22;10970;48.714;9.584;2022-08-06T05:52:26;18.30;99.90
21616;DHT22;10970;48.714;9.584;2022-08-06T05:55:06;18.40;99.90
21616;DHT22;10970;48.714;9.584;2022-08-06T05:57:38;18.20;99.90
21616;DHT22;10970;48.714;9.584;2022-08-06T06:00:12;18.10;99.90
21616;DHT22;10970;48.714;9.584;2022-08-06T06:02:51;18.20;99.90
21616;DHT22;10970;48.714;9.584;2022-08-06T06:05:20;18.40;99.90
21616;DHT22;10970;48.714;9.584;2022-08-06T06:07:47;18.40;99.90
21616;DHT22;10970;48.714;9.584;2022-08-06T06:10:14;18.40;99.90
21616;DHT22;10970;48.714;9.584;2022-08-06T06:12:40;18.40;99.90
21616;DHT22;10970;48.714;9.584;2022-08-06T06:15:07;18.20;99.90
21616;DHT22;10970;48.714;9.584;2022-08-06T06:20:10;18.60;99.90
21616;DHT22;10970;48.714;9.584;2022-08-06T06:25:18;18.40;99.90
21616;DHT22;10970;48.714;9.584;2022-08-06T06:27:52;18.50;99.90
21616;DHT22;10970;48.714;9.584;2022-08-06T06:33:11;18.50;99.90
21616;DHT22;10970;48.714;9.584;2022-08-06T06:36:02;18.50;99.90
21616;DHT22;10970;48.714;9.584;2022-08-06T06:39:14;18.60;99.90
21616;DHT22;10970;48.714;9.584;2022-08-06T06:41:53;18.80;99.90
21616;DHT22;10970;48.714;9.584;2022-08-06T06:47:05;18.80;99.90
21616;DHT22;10970;48.714;9.584;2022-08-06T06:52:11;19.00;99.90
21616;DHT22;10970;48.714;9.584;2022-08-06T06:54:46;18.90;99.90
21616;DHT22;10970;48.714;9.584;2022-08-06T06:57:17;19.00;99.90
21616;DHT22;10970;48.714;9.584;2022-08-06T06:59:47;19.20;99.90
21616;DHT22;10970;48.714;9.584;2022-08-06T07:02:22;19.00;99.90
21616;DHT22;10970;48.714;9.584;2022-08-06T07:04:49;19.40;99.90
21616;DHT22;10970;48.714;9.584;2022-08-06T07:07:15;19.50;99.90
21616;DHT22;10970;48.714;9.584;2022-08-06T07:09:42;19.50;99.90
21616;DHT22;10970;48.714;9.584;2022-08-06T07:12:11;19.50;99.90
21616;DHT22;10970;48.714;9.584;2022-08-06T07:14:38;19.60;99.90
21616;DHT22;10970;48.714;9.584;2022-08-06T07:17:05;19.70;99.90
21616;DHT22;10970;48.714;9.584;2022-08-06T07:19:32;19.60;99.90
21616;DHT22;10970;48.714;9.584;2022-08-06T07:24:26;19.80;99.90
21616;DHT22;10970;48.714;9.584;2022-08-06T07:26:57;19.70;99.90
21616;DHT22;10970;48.714;9.584;2022-08-06T07:29:24;19.70;99.90
21616;DHT22;10970;48.714;9.584;2022-08-06T07:31:51;19.70;99.90
21616;DHT22;10970;48.714;9.584;2022-08-06T07:34:18;19.50;99.90
21616;DHT22;10970;48.714;9.584;2022-08-06T07:36:51;19.50;99.90
21616;DHT22;10970;48.714;9.584;2022-08-06T07:39:23;19.50;99.90
21616;DHT22;10970;48.714;9.584;2022-08-06T07:41:51;19.60;99.90
21616;DHT22;10970;48.714;9.584;2022-08-06T07:44:20;19.40;99.90
21616;DHT22;10970;48.714;9.584;2022-08-06T07:46:47;19.40;99.90
21616;DHT22;10970;48.714;9.584;2022-08-06T07:49:18;19.20;99.90
21616;DHT22;10970;48.714;9.584;2022-08-06T07:51:45;19.40;99.90
21616;DHT22;10970;48.714;9.584;2022-08-06T07:54:12;19.50;99.90
21616;DHT22;10970;48.714;9.584;2022-08-06T07:56:40;19.80;99.90
21616;DHT22;10970;48.714;9.584;2022-08-06T07:59:07;20.00;99.90
21616;DHT22;10970;48.714;9.584;2022-08-06T08:01:35;19.80;99.90
21616;DHT22;10970;48.714;9.584;2022-08-06T08:04:05;19.90;99.90
21616;DHT22;10970;48.714;9.584;2022-08-06T08:06:55;20.20;99.90
21616;DHT22;10970;48.714;9.584;2022-08-06T08:09:24;20.50;99.90
21616;DHT22;10970;48.714;9.584;2022-08-06T08:11:54;20.40;99.90
21616;DHT22;10970;48.714;9.584;2022-08-06T08:14:21;20.40;99.90
21616;DHT22;10970;48.714;9.584;2022-08-06T08:16:49;20.40;99.90
21616;DHT22;10970;48.714;9.584;2022-08-06T08:19:23;20.50;99.90
21616;DHT22;10970;48.714;9.584;2022-08-06T08:21:51;20.20;99.90
21616;DHT22;10970;48.714;9.584;2022-08-06T08:24:17;20.20;99.90
21616;DHT22;10970;48.714;9.584;2022-08-06T08:26:43;20.20;99.90
21616;DHT22;10970;48.714;9.584;2022-08-06T08:31:35;20.30;99.90
21616;DHT22;10970;48.714;9.584;2022-08-06T08:34:01;21.00;99.90
21616;DHT22;10970;48.714;9.584;2022-08-06T08:36:27;21.10;99.90
21616;DHT22;10970;48.714;9.584;2022-08-06T08:38:52;21.10;99.90
21616;DHT22;10970;48.714;9.584;2022-08-06T08:41:31;21.30;99.90
21616;DHT22;10970;48.714;9.584;2022-08-06T08:44:04;21.40;99.90
21616;DHT22;10970;48.714;9.584;2022-08-06T08:46:42;21.50;99.90
21616;DHT22;10970;48.714;9.584;2022-08-06T08:49:16;21.60;99.90
21616;DHT22;10970;48.714;9.584;2022-08-06T08:51:45;21.70;99.90
21616;DHT22;10970;48.714;9.584;2022-08-06T08:54:15;21.60;99.90
21616;DHT22;10970;48.714;9.584;2022-08-06T08:56:42;21.60;99.90
21616;DHT22;10970;48.714;9.584;2022-08-06T08:59:08;21.60;99.90
21616;DHT22;10970;48.714;9.584;2022-08-06T09:01:34;21.90;99.90
21616;DHT22;10970;48.714;9.584;2022-08-06T09:04:03;21.90;99.90
21616;DHT22;10970;48.714;9.584;2022-08-06T09:06:30;21.70;99.90
21616;DHT22;10970;48.714;9.584;2022-08-06T09:08:58;21.50;99.90
21616;DHT22;10970;48.714;9.584;2022-08-06T09:11:29;21.90;99.90
21616;DHT22;10970;48.714;9.584;2022-08-06T09:13:55;22.00;99.90
21616;DHT22;10970;48.714;9.584;2022-08-06T09:16:21;21.90;99.90
21616;DHT22;10970;48.714;9.584;2022-08-06T09:18:47;21.60;99.90
21616;DHT22;10970;48.714;9.584;2022-08-06T09:21:12;21.90;99.90
21616;DHT22;10970;48.714;9.584;2022-08-06T09:23:38;21.90;99.90
21616;DHT22;10970;48.714;9.584;2022-08-06T09:26:05;22.00;99.90
21616;DHT22;10970;48.714;9.584;2022-08-06T09:28:42;21.70;99.90
21616;DHT22;10970;48.714;9.584;2022-08-06T09:31:16;21.50;99.90
21616;DHT22;10970;48.714;9.584;2022-08-06T09:36:18;22.30;99.90
21616;DHT22;10970;48.714;9.584;2022-08-06T09:38:53;22.30;99.90
21616;DHT22;10970;48.714;9.584;2022-08-06T09:41:23;22.40;99.90
21616;DHT22;10970;48.714;9.584;2022-08-06T09:43:51;22.40;99.90
21616;DHT22;10970;48.714;9.584;2022-08-06T09:46:18;22.00;99.90
21616;DHT22;10970;48.714;9.584;2022-08-06T09:49:01;22.30;99.90
21616;DHT22;10970;48.714;9.584;2022-08-06T09:51:27;22.90;99.90
21616;DHT22;10970;48.714;9.584;2022-08-06T09:53:57;23.00;99.90
21616;DHT22;10970;48.714;9.584;2022-08-06T09:56:25;23.10;99.90
21616;DHT22;10970;48.714;9.584;2022-08-06T09:59:01;23.00;99.90
21616;DHT22;10970;48.714;9.584;2022-08-06T10:01:28;23.20;99.90
21616;DHT22;10970;48.714;9.584;2022-08-06T10:03:56;22.80;99.90
21616;DHT22;10970;48.714;9.584;2022-08-06T10:06:22;23.10;99.90
21616;DHT22;10970;48.714;9.584;2022-08-06T10:09:05;22.80;99.90
21616;DHT22;10970;48.714;9.584;2022-08-06T10:11:50;23.40;99.90
21616;DHT22;10970;48.714;9.584;2022-08-06T10:14:33;23.20;99.90
21616;DHT22;10970;48.714;9.584;2022-08-06T10:17:15;23.80;99.90
21616;DHT22;10970;48.714;9.584;2022-08-06T10:19:46;23.90;99.90
21616;DHT22;10970;48.714;9.584;2022-08-06T10:22:15;23.10;99.90
21616;DHT22;10970;48.714;9.584;2022-08-06T10:24:50;23.50;99.90
21616;DHT22;10970;48.714;9.584;2022-08-06T10:27:20;23.30;99.90
21616;DHT22;10970;48.714;9.584;2022-08-06T10:29:55;23.40;99.90
21616;DHT22;10970;48.714;9.584;2022-08-06T10:32:52;23.70;99.90
21616;DHT22;10970;48.714;9.584;2022-08-06T10:35:21;24.00;99.90
21616;DHT22;10970;48.714;9.584;2022-08-06T10:38:03;23.60;99.90
21616;DHT22;10970;48.714;9.584;2022-08-06T10:40:30;23.30;99.90
21616;DHT22;10970;48.714;9.584;2022-08-06T10:43:03;23.80;99.90
21616;DHT22;10970;48.714;9.584;2022-08-06T10:45:29;23.10;99.90
21616;DHT22;10970;48.714;9.584;2022-08-06T10:47:57;23.40;99.90
21616;DHT22;10970;48.714;9.584;2022-08-06T10:50:23;23.20;99.90
21616;DHT22;10970;48.714;9.584;2022-08-06T10:55:15;22.90;99.90
21616;DHT22;10970;48.714;9.584;2022-08-06T10:57:43;23.20;99.90
21616;DHT22;10970;48.714;9.584;2022-08-06T11:00:09;23.40;99.90
21616;DHT22;10970;48.714;9.584;2022-08-06T11:02:58;23.90;99.90
21616;DHT22;10970;48.714;9.584;2022-08-06T11:05:35;23.60;99.90
21616;DHT22;10970;48.714;9.584;2022-08-06T11:13:46;23.30;99.90
21616;DHT22;10970;48.714;9.584;2022-08-06T11:16:28;23.30;99.90
21616;DHT22;10970;48.714;9.584;2022-08-06T11:21:47;23.00;99.90
21616;DHT22;10970;48.714;9.584;2022-08-06T11:24:13;23.10;99.90
21616;DHT22;10970;48.714;9.584;2022-08-06T11:26:43;23.50;99.90
21616;DHT22;10970;48.714;9.584;2022-08-06T11:29:11;23.20;99.90
21616;DHT22;10970;48.714;9.584;2022-08-06T11:31:46;23.20;99.90
21616;DHT22;10970;48.714;9.584;2022-08-06T11:34:16;23.50;99.90
21616;DHT22;10970;48.714;9.584;2022-08-06T11:36:50;23.90;99.90
21616;DHT22;10970;48.714;9.584;2022-08-06T11:39:17;24.20;99.90
21616;DHT22;10970;48.714;9.584;2022-08-06T11:44:14;24.10;99.90
21616;DHT22;10970;48.714;9.584;2022-08-06T11:46:43;24.00;99.90
21616;DHT22;10970;48.714;9.584;2022-08-06T11:49:18;24.10;99.90
21616;DHT22;10970;48.714;9.584;2022-08-06T11:51:59;24.20;99.90
21616;DHT22;10970;48.714;9.584;2022-08-06T11:54:58;24.50;99.90
21616;DHT22;10970;48.714;9.584;2022-08-06T11:57:23;24.90;99.90
21616;DHT22;10970;48.714;9.584;2022-08-06T12:05:06;24.80;99.90
21616;DHT22;10970;48.714;9.584;2022-08-06T12:07:33;24.30;99.90
21616;DHT22;10970;48.714;9.584;2022-08-06T12:12:45;23.80;99.90
21616;DHT22;10970;48.714;9.584;2022-08-06T12:23:07;23.80;99.90
21616;DHT22;10970;48.714;9.584;2022-08-06T12:25:39;24.10;99.90
21616;DHT22;10970;48.714;9.584;2022-08-06T12:28:07;24.00;99.90
21616;DHT22;10970;48.714;9.584;2022-08-06T12:30:50;24.30;99.90
21616;DHT22;10970;48.714;9.584;2022-08-06T12:33:17;24.60;99.90
21616;DHT22;10970;48.714;9.584;2022-08-06T12:35:58;24.60;99.90
21616;DHT22;10970;48.714;9.584;2022-08-06T12:38:26;25.00;99.90
21616;DHT22;10970;48.714;9.584;2022-08-06T12:41:04;24.50;99.90
21616;DHT22;10970;48.714;9.584;2022-08-06T12:43:32;24.00;99.90
21616;DHT22;10970;48.714;9.584;2022-08-06T12:46:05;23.80;99.90
21616;DHT22;10970;48.714;9.584;2022-08-06T12:48:33;23.90;99.90
21616;DHT22;10970;48.714;9.584;2022-08-06T12:51:11;24.20;99.90
21616;DHT22;10970;48.714;9.584;2022-08-06T12:56:16;23.90;99.90
21616;DHT22;10970;48.714;9.584;2022-08-06T12:58:43;23.90;99.90
21616;DHT22;10970;48.714;9.584;2022-08-06T13:01:13;23.90;99.90
21616;DHT22;10970;48.714;9.584;2022-08-06T13:03:41;24.10;99.90
21616;DHT22;10970;48.714;9.584;2022-08-06T13:06:10;24.30;99.90
21616;DHT22;10970;48.714;9.584;2022-08-06T13:08:37;24.40;99.90
21616;DHT22;10970;48.714;9.584;2022-08-06T13:11:03;24.30;99.90
21616;DHT22;10970;48.714;9.584;2022-08-06T13:16:11;24.20;99.90
21616;DHT22;10970;48.714;9.584;2022-08-06T13:18:41;24.10;99.90
21616;DHT22;10970;48.714;9.584;2022-08-06T13:21:21;24.30;99.90
21616;DHT22;10970;48.714;9.584;2022-08-06T13:23:49;24.40;99.90
21616;DHT22;10970;48.714;9.584;2022-08-06T13:26:19;24.50;99.90
21616;DHT22;10970;48.714;9.584;2022-08-06T13:29:47;24.80;99.90
21616;DHT22;10970;48.714;9.584;2022-08-06T13:32:06;24.90;99.90
21616;DHT22;10970;48.714;9.584;2022-08-06T13:34:51;24.80;99.90
21616;DHT22;10970;48.714;9.584;2022-08-06T13:39:51;23.90;99.90
21616;DHT22;10970;48.714;9.584;2022-08-06T13:42:17;24.10;99.90
21616;DHT22;10970;48.714;9.584;2022-08-06T13:44:46;24.10;99.90
21616;DHT22;10970;48.714;9.584;2022-08-06T13:47:24;24.20;99.90
21616;DHT22;10970;48.714;9.584;2022-08-06T13:49:50;24.30;99.90
21616;DHT22;10970;48.714;9.584;2022-08-06T13:52:16;24.40;99.90
21616;DHT22;10970;48.714;9.584;2022-08-06T13:54:41;24.60;99.90
21616;DHT22;10970;48.714;9.584;2022-08-06T14:02:02;24.80;99.90
21616;DHT22;10970;48.714;9.584;2022-08-06T14:04:28;25.00;99.90
21616;DHT22;10970;48.714;9.584;2022-08-06T14:06:56;24.90;99.90
21616;DHT22;10970;48.714;9.584;2022-08-06T14:09:28;25.10;99.90
21616;DHT22;10970;48.714;9.584;2022-08-06T14:12:01;25.00;99.90
21616;DHT22;10970;48.714;9.584;2022-08-06T14:14:28;24.80;99.90
21616;DHT22;10970;48.714;9.584;2022-08-06T14:16:55;24.60;99.90
21616;DHT22;10970;48.714;9.584;2022-08-06T14:21:47;24.80;99.90
21616;DHT22;10970;48.714;9.584;2022-08-06T14:24:13;24.90;99.90
21616;DHT22;10970;48.714;9.584;2022-08-06T14:26:39;24.70;99.90
21616;DHT22;10970;48.714;9.584;2022-08-06T14:29:05;24.70;99.90
21616;DHT22;10970;48.714;9.584;2022-08-06T14:31:31;24.80;99.90
21616;DHT22;10970;48.714;9.584;2022-08-06T14:36:27;24.90;99.90
21616;DHT22;10970;48.714;9.584;2022-08-06T14:44:04;24.90;99.90
21616;DHT22;10970;48.714;9.584;2022-08-06T14:46:49;25.00;99.90
21616;DHT22;10970;48.714;9.584;2022-08-06T14:49:14;25.20;99.90
21616;DHT22;10970;48.714;9.584;2022-08-06T14:51:40;25.20;99.90
21616;DHT22;10970;48.714;9.584;2022-08-06T14:58:58;25.30;99.90
21616;DHT22;10970;48.714;9.584;2022-08-06T15:08:42;25.40;99.90
21616;DHT22;10970;48.714;9.584;2022-08-06T15:30:38;25.10;99.90
21616;DHT22;10970;48.714;9.584;2022-08-06T15:33:04;24.90;99.90
21616;DHT22;10970;48.714;9.584;2022-08-06T15:37:56;25.40;99.90
21616;DHT22;10970;48.714;9.584;2022-08-06T15:40:22;25.50;99.90
21616;DHT22;10970;48.714;9.584;2022-08-06T15:45:14;25.80;99.90
21616;DHT22;10970;48.714;9.584;2022-08-06T15:47:40;25.50;99.90
21616;DHT22;10970;48.714;9.584;2022-08-06T15:50:06;25.50;99.90
21616;DHT22;10970;48.714;9.584;2022-08-06T15:52:34;25.30;99.90
21616;DHT22;10970;48.714;9.584;2022-08-06T15:55:01;25.00;99.90
21616;DHT22;10970;48.714;9.584;2022-08-06T15:57:27;25.00;99.90
21616;DHT22;10970;48.714;9.584;2022-08-06T15:59:53;24.90;99.90
21616;DHT22;10970;48.714;9.584;2022-08-06T16:02:19;25.00;99.90
21616;DHT22;10970;48.714;9.584;2022-08-06T16:07:10;25.00;99.90
21616;DHT22;10970;48.714;9.584;2022-08-06T16:12:03;25.30;99.90
21616;DHT22;10970;48.714;9.584;2022-08-06T16:24:16;24.90;99.90
21616;DHT22;10970;48.714;9.584;2022-08-06T16:26:41;25.00;99.90
21616;DHT22;10970;48.714;9.584;2022-08-06T16:29:08;25.00;99.90
21616;DHT22;10970;48.714;9.584;2022-08-06T16:31:34;25.30;99.90
21616;DHT22;10970;48.714;9.584;2022-08-06T16:33:59;25.30;99.90
21616;DHT22;10970;48.714;9.584;2022-08-06T16:46:13;24.90;99.90
21616;DHT22;10970;48.714;9.584;2022-08-06T16:48:39;24.80;99.90
21616;DHT22;10970;48.714;9.584;2022-08-06T16:51:05;24.80;99.90
21616;DHT22;10970;48.714;9.584;2022-08-06T16:55:57;24.70;99.90
21616;DHT22;10970;48.714;9.584;2022-08-06T16:58:24;24.60;99.90
21616;DHT22;10970;48.714;9.584;2022-08-06T17:10:33;24.20;99.90
21616;DHT22;10970;48.714;9.584;2022-08-06T17:12:59;24.20;99.90
21616;DHT22;10970;48.714;9.584;2022-08-06T17:17:51;24.20;99.90
21616;DHT22;10970;48.714;9.584;2022-08-06T17:27:37;24.10;99.90
21616;DHT22;10970;48.714;9.584;2022-08-06T17:30:09;24.10;99.90
21616;DHT22;10970;48.714;9.584;2022-08-06T17:32:37;24.00;99.90
21616;DHT22;10970;48.714;9.584;2022-08-06T17:47:19;23.80;99.90
21616;DHT22;10970;48.714;9.584;2022-08-06T17:54:38;23.70;99.90
21616;DHT22;10970;48.714;9.584;2022-08-06T17:57:03;23.60;99.90
21616;DHT22;10970;48.714;9.584;2022-08-06T17:59:29;23.50;99.90
21616;DHT22;10970;48.714;9.584;2022-08-06T18:01:56;23.50;99.90
21616;DHT22;10970;48.714;9.584;2022-08-06T18:04:23;23.50;99.90
21616;DHT22;10970;48.714;9.584;2022-08-06T18:06:52;23.40;99.90
21616;DHT22;10970;48.714;9.584;2022-08-06T18:09:18;23.40;99.90
21616;DHT22;10970;48.714;9.584;2022-08-06T18:11:44;23.30;99.90
21616;DHT22;10970;48.714;9.584;2022-08-06T18:14:09;23.30;99.90
21616;DHT22;10970;48.714;9.584;2022-08-06T18:16:36;23.20;99.90
21616;DHT22;10970;48.714;9.584;2022-08-06T18:28:48;23.00;99.90
21616;DHT22;10970;48.714;9.584;2022-08-06T18:33:41;22.90;99.90
21616;DHT22;10970;48.714;9.584;2022-08-06T18:36:08;22.80;99.90
21616;DHT22;10970;48.714;9.584;2022-08-06T18:41:01;22.70;99.90
21616;DHT22;10970;48.714;9.584;2022-08-06T18:43:28;22.60;99.90
21616;DHT22;10970;48.714;9.584;2022-08-06T18:45:54;22.50;99.90
21616;DHT22;10970;48.714;9.584;2022-08-06T18:48:22;22.50;99.90
21616;DHT22;10970;48.714;9.584;2022-08-06T18:50:47;22.40;99.90
21616;DHT22;10970;48.714;9.584;2022-08-06T18:53:13;22.40;99.90
21616;DHT22;10970;48.714;9.584;2022-08-06T18:55:39;22.30;99.90
21616;DHT22;10970;48.714;9.584;2022-08-06T19:02:58;22.10;99.90
21616;DHT22;10970;48.714;9.584;2022-08-06T19:05:24;22.00;99.90
21616;DHT22;10970;48.714;9.584;2022-08-06T19:12:44;21.80;99.90
21616;DHT22;10970;48.714;9.584;2022-08-06T19:15:10;21.60;99.90
21616;DHT22;10970;48.714;9.584;2022-08-06T19:17:37;21.40;99.90
21616;DHT22;10970;48.714;9.584;2022-08-06T19:20:10;21.30;99.90
21616;DHT22;10970;48.714;9.584;2022-08-06T19:22:36;21.30;99.90
21616;DHT22;10970;48.714;9.584;2022-08-06T19:25:04;21.30;99.90
21616;DHT22;10970;48.714;9.584;2022-08-06T19:27:30;21.20;99.90
21616;DHT22;10970;48.714;9.584;2022-08-06T19:32:22;21.00;99.90
21616;DHT22;10970;48.714;9.584;2022-08-06T19:47:04;20.40;99.90
21616;DHT22;10970;48.714;9.584;2022-08-06T19:56:48;20.00;99.90
21616;DHT22;10970;48.714;9.584;2022-08-06T19:59:15;20.00;99.90
21616;DHT22;10970;48.714;9.584;2022-08-06T20:13:52;19.70;99.90
21616;DHT22;10970;48.714;9.584;2022-08-06T20:16:18;19.70;99.90
21616;DHT22;10970;48.714;9.584;2022-08-06T20:33:25;19.20;99.90
21616;DHT22;10970;48.714;9.584;2022-08-06T20:38:18;19.00;99.90
21616;DHT22;10970;48.714;9.584;2022-08-06T20:50:33;18.80;99.90
21616;DHT22;10970;48.714;9.584;2022-08-06T21:00:19;18.40;99.90
21616;DHT22;10970;48.714;9.584;2022-08-06T21:05:13;18.30;99.90
21616;DHT22;10970;48.714;9.584;2022-08-06T21:07:40;18.40;99.90
21616;DHT22;10970;48.714;9.584;2022-08-06T21:10:07;18.20;99.90
21616;DHT22;10970;48.714;9.584;2022-08-06T21:12:34;18.20;99.90
21616;DHT22;10970;48.714;9.584;2022-08-06T21:15:01;18.20;99.90
21616;DHT22;10970;48.714;9.584;2022-08-06T21:17:26;18.10;99.90
21616;DHT22;10970;48.714;9.584;2022-08-06T21:19:52;18.20;99.90
21616;DHT22;10970;48.714;9.584;2022-08-06T21:24:44;18.00;99.90
21616;DHT22;10970;48.714;9.584;2022-08-06T21:27:10;18.10;99.90
21616;DHT22;10970;48.714;9.584;2022-08-06T21:32:02;17.70;99.90
21616;DHT22;10970;48.714;9.584;2022-08-06T21:34:29;17.70;99.90
21616;DHT22;10970;48.714;9.584;2022-08-06T21:36:56;17.60;99.90